createdAt,value
2018-07-11T00:01:16.886Z,86.78
2018-07-11T00:03:45.311Z,86.85
2018-07-11T00:06:13.642Z,87.71
2018-07-11T00:08:40.959Z,87.41
2018-07-11T00:11:08.684Z,87.59
2018-07-11T00:13:35.921Z,88.10
2018-07-11T00:16:03.298Z,88.58
2018-07-11T00:18:30.609Z,88.59
2018-07-11T00:20:58.182Z,88.23
2018-07-11T00:23:25.433Z,88.43
2018-07-11T00:25:52.616Z,88.90
2018-07-11T00:28:20.032Z,89.22
2018-07-11T00:30:47.480Z,89.36
2018-07-11T00:33:14.636Z,89.61
2018-07-11T00:35:41.743Z,90.12
2018-07-11T00:38:09.017Z,90.43
2018-07-11T00:40:36.251Z,91.03
2018-07-11T00:43:03.428Z,91.02
2018-07-11T00:45:30.935Z,90.71
2018-07-11T00:47:58.165Z,90.63
2018-07-11T00:50:25.368Z,90.27
2018-07-11T00:52:52.540Z,90.96
2018-07-11T00:55:19.689Z,90.54
2018-07-11T00:57:46.887Z,90.02
2018-07-11T01:00:14.043Z,89.72
2018-07-11T01:02:41.201Z,90.28
2018-07-11T01:05:08.577Z,91.29
2018-07-11T01:07:35.809Z,90.98
2018-07-11T01:10:03.164Z,90.52
2018-07-11T01:12:32.570Z,89.98
2018-07-11T01:14:59.888Z,89.72
2018-07-11T01:17:32.707Z,89.00
2018-07-11T01:19:59.980Z,89.12
2018-07-11T01:22:27.143Z,88.81
2018-07-11T01:24:54.279Z,88.51
2018-07-11T01:27:21.387Z,89.06
2018-07-11T01:29:48.586Z,89.14
2018-07-11T01:32:15.719Z,90.06
2018-07-11T01:34:42.899Z,90.76
2018-07-11T01:37:10.160Z,90.81
2018-07-11T01:39:37.281Z,90.08
2018-07-11T01:42:04.560Z,90.50
2018-07-11T01:44:31.938Z,90.66
2018-07-11T01:46:59.195Z,91.36
2018-07-11T01:49:27.213Z,91.41
2018-07-11T01:52:06.000Z,92.22
2018-07-11T01:54:33.678Z,91.84
2018-07-11T01:57:02.122Z,92.32
2018-07-11T01:59:32.318Z,92.63
2018-07-11T02:01:59.538Z,92.46
2018-07-11T02:04:26.916Z,92.37
2018-07-11T02:06:54.102Z,92.56
2018-07-11T02:09:21.223Z,91.43
2018-07-11T02:11:48.420Z,91.28
2018-07-11T02:14:15.616Z,90.82
2018-07-11T02:16:43.566Z,91.25
2018-07-11T02:19:11.646Z,91.21
2018-07-11T02:21:38.914Z,91.94
2018-07-11T02:24:06.138Z,92.04
2018-07-11T02:26:33.339Z,92.51
2018-07-11T02:29:00.728Z,93.17
2018-07-11T02:31:28.621Z,93.27
2018-07-11T02:33:55.762Z,92.55
2018-07-11T02:36:22.999Z,91.89
2018-07-11T02:38:50.139Z,90.92
2018-07-11T02:41:17.286Z,91.12
2018-07-11T02:43:44.456Z,91.46
2018-07-11T02:46:11.676Z,91.88
2018-07-11T02:48:38.838Z,93.71
2018-07-11T02:51:06.069Z,94.54
2018-07-11T02:53:33.698Z,95.96
2018-07-11T02:56:00.844Z,95.81
2018-07-11T02:58:28.050Z,96.10
2018-07-11T03:00:55.212Z,97.07
2018-07-11T03:03:22.364Z,97.13
2018-07-11T03:05:49.537Z,96.25
2018-07-11T03:08:17.676Z,95.86
2018-07-11T03:10:46.188Z,96.09
2018-07-11T03:13:13.404Z,96.29
2018-07-11T03:15:40.575Z,95.05
2018-07-11T03:18:07.810Z,94.49
2018-07-11T03:20:35.106Z,94.12
2018-07-11T03:23:02.253Z,93.14
2018-07-11T03:25:29.415Z,92.56
2018-07-11T03:27:56.762Z,92.38
2018-07-11T03:30:23.988Z,92.76
2018-07-11T03:32:51.124Z,92.00
2018-07-11T03:35:19.340Z,91.69
2018-07-11T03:37:46.513Z,91.12
2018-07-11T03:40:14.236Z,91.56
2018-07-11T03:42:41.463Z,92.07
2018-07-11T03:45:08.666Z,92.53
2018-07-11T03:47:35.927Z,93.15
2018-07-11T03:50:03.143Z,93.78
2018-07-11T03:52:30.307Z,93.55
2018-07-11T03:54:57.452Z,93.58
2018-07-11T03:57:26.649Z,93.87
2018-07-11T03:59:53.808Z,94.29
2018-07-11T04:02:20.976Z,93.76
2018-07-11T04:04:48.124Z,94.12
2018-07-11T04:07:15.268Z,94.33
2018-07-11T04:09:42.540Z,93.86
2018-07-11T04:12:09.736Z,94.33
2018-07-11T04:14:36.980Z,94.77
2018-07-11T04:17:04.628Z,94.34
2018-07-11T04:19:31.761Z,94.19
2018-07-11T04:21:58.852Z,93.25
2018-07-11T04:24:26.020Z,92.10
2018-07-11T04:26:53.251Z,91.96
2018-07-11T04:29:20.522Z,91.26
2018-07-11T04:31:48.047Z,91.38
2018-07-11T04:34:15.170Z,90.73
2018-07-11T04:36:44.328Z,90.68
2018-07-11T04:39:11.650Z,91.81
2018-07-11T04:41:38.934Z,88.78
2018-07-11T04:44:06.238Z,89.56
2018-07-11T04:46:33.780Z,87.88
2018-07-11T04:49:09.979Z,89.54
2018-07-11T04:51:37.500Z,87.89
2018-07-11T04:54:04.875Z,85.97
2018-07-11T04:56:32.043Z,88.04
2018-07-11T04:58:59.321Z,87.41
2018-07-11T05:01:26.532Z,87.24
2018-07-11T05:03:53.797Z,87.20
2018-07-11T05:06:21.218Z,86.70
2018-07-11T05:08:50.131Z,86.90
2018-07-11T05:11:17.892Z,86.45
2018-07-11T05:13:45.131Z,85.79
2018-07-11T05:16:14.040Z,83.78
2018-07-11T05:18:41.767Z,83.38
2018-07-11T05:21:10.081Z,85.03
2018-07-11T05:23:38.863Z,81.47
2018-07-11T05:26:06.921Z,82.27
2018-07-11T05:28:34.380Z,82.12
2018-07-11T05:31:01.512Z,82.23
2018-07-11T05:33:28.600Z,81.40
2018-07-11T05:35:55.992Z,81.00
2018-07-11T05:38:24.287Z,79.49
2018-07-11T05:40:51.412Z,80.78
2018-07-11T05:43:19.065Z,80.43
2018-07-11T05:45:47.070Z,81.29
2018-07-11T05:48:14.230Z,79.94
2018-07-11T05:50:41.412Z,80.17
2018-07-11T05:53:08.726Z,80.35
2018-07-11T05:55:36.581Z,81.20
2018-07-11T05:58:03.897Z,82.24
2018-07-11T06:00:36.740Z,82.05
2018-07-11T06:03:04.926Z,81.81
2018-07-11T06:05:34.298Z,82.07
2018-07-11T06:08:01.569Z,81.39
2018-07-11T06:10:28.752Z,79.04
2018-07-11T06:12:55.867Z,79.31
2018-07-11T06:15:23.458Z,80.26
2018-07-11T06:17:50.611Z,79.46
2018-07-11T06:20:17.789Z,77.63
2018-07-11T06:22:45.074Z,77.42
2018-07-11T06:25:12.341Z,76.38
2018-07-11T06:27:39.569Z,79.11
2018-07-11T06:30:06.785Z,76.94
2018-07-11T06:32:35.205Z,77.01
2018-07-11T06:35:03.681Z,76.18
2018-07-11T06:37:30.998Z,76.15
2018-07-11T06:39:58.242Z,74.26
2018-07-11T06:42:25.467Z,69.81
2018-07-11T06:44:52.721Z,69.01
2018-07-11T06:47:19.909Z,69.26
2018-07-11T06:49:47.524Z,69.45
2018-07-11T06:52:15.501Z,68.15
2018-07-11T06:54:42.677Z,67.30
2018-07-11T06:57:09.882Z,68.44
2018-07-11T06:59:37.842Z,72.40
2018-07-11T07:02:06.692Z,72.02
2018-07-11T07:04:34.654Z,74.61
2018-07-11T07:07:01.841Z,73.03
2018-07-11T07:09:29.097Z,72.09
2018-07-11T07:11:56.730Z,72.51
2018-07-11T07:14:24.071Z,72.44
2018-07-11T07:16:51.273Z,70.67
2018-07-11T07:19:18.432Z,69.11
2018-07-11T07:21:46.215Z,69.40
2018-07-11T07:24:14.729Z,69.11
2018-07-11T07:26:43.041Z,66.36
2018-07-11T07:29:12.076Z,64.86
2018-07-11T07:31:40.749Z,62.59
2018-07-11T07:34:10.481Z,61.00
2018-07-11T07:36:41.148Z,61.73
2018-07-11T07:39:08.626Z,61.15
2018-07-11T07:41:37.065Z,60.70
2018-07-11T07:44:05.583Z,59.67
2018-07-11T07:46:32.849Z,58.74
2018-07-11T07:49:00.414Z,56.67
2018-07-11T07:51:28.634Z,56.46
2018-07-11T07:53:55.939Z,55.58
2018-07-11T07:56:23.205Z,56.69
2018-07-11T07:58:50.752Z,57.10
2018-07-11T08:01:19.298Z,57.53
2018-07-11T08:03:46.700Z,61.13
2018-07-11T08:06:14.079Z,58.83
2018-07-11T08:08:42.229Z,59.68
2018-07-11T08:11:11.388Z,55.93
2018-07-11T08:13:41.800Z,57.28
2018-07-11T08:16:10.669Z,57.27
2018-07-11T08:18:38.334Z,57.34
2018-07-11T08:21:11.444Z,59.73
2018-07-11T08:23:50.347Z,58.06
2018-07-11T08:26:29.055Z,59.46
2018-07-11T08:31:11.670Z,56.98
2018-07-11T08:35:00.920Z,56.17
2018-07-11T08:37:39.483Z,57.82
2018-07-11T08:40:29.575Z,58.63
2018-07-11T08:43:07.084Z,57.85
2018-07-11T08:48:01.415Z,57.08
2018-07-11T08:52:47.788Z,58.56
2018-07-11T08:57:33.278Z,54.26
2018-07-11T09:00:12.120Z,54.99
2018-07-11T09:02:55.501Z,55.27
2018-07-11T09:05:38.064Z,55.22
2018-07-11T09:08:16.572Z,56.33
2018-07-11T09:11:02.603Z,55.78
2018-07-11T09:13:39.991Z,53.56
2018-07-11T09:16:19.252Z,53.57
2018-07-11T09:23:04.749Z,52.72
2018-07-11T09:25:31.920Z,48.13
2018-07-11T09:27:59.091Z,48.08
2018-07-11T09:30:26.320Z,47.58
2018-07-11T09:32:54.387Z,48.19
2018-07-11T09:35:21.495Z,45.76
2018-07-11T09:37:49.265Z,47.61
2018-07-11T09:40:17.352Z,44.11
2018-07-11T09:42:44.495Z,44.17
2018-07-11T09:45:11.700Z,46.06
2018-07-11T09:47:38.828Z,47.65
2018-07-11T09:50:05.961Z,40.60
2018-07-11T09:52:34.248Z,41.78
2018-07-11T09:55:01.492Z,42.99
2018-07-11T09:57:28.615Z,41.66
2018-07-11T09:59:55.859Z,40.72
2018-07-11T10:02:22.987Z,43.90
2018-07-11T10:04:51.661Z,42.89
2018-07-11T10:07:18.839Z,45.82
2018-07-11T10:09:46.050Z,46.09
2018-07-11T10:12:13.233Z,46.44
2018-07-11T10:14:40.372Z,46.18
2018-07-11T10:17:08.812Z,45.04
2018-07-11T10:19:35.964Z,43.44
2018-07-11T10:22:03.224Z,45.99
2018-07-11T10:24:30.383Z,44.45
2018-07-11T10:26:57.494Z,45.12
2018-07-11T10:29:24.717Z,46.64
2018-07-11T10:31:51.950Z,42.60
2018-07-11T10:34:19.091Z,41.86
2018-07-11T10:36:48.263Z,44.61
2018-07-11T10:39:15.483Z,41.28
2018-07-11T10:41:42.600Z,41.49
2018-07-11T10:44:09.739Z,42.99
2018-07-11T10:46:36.901Z,38.41
2018-07-11T10:49:04.233Z,38.76
2018-07-11T10:51:31.403Z,38.45
2018-07-11T10:53:58.526Z,40.09
2018-07-11T10:56:25.652Z,41.48
2018-07-11T10:58:52.821Z,45.31
2018-07-11T11:01:20.116Z,43.16
2018-07-11T11:03:47.143Z,43.79
2018-07-11T11:06:14.912Z,45.32
2018-07-11T11:08:42.011Z,42.85
2018-07-11T11:11:09.124Z,41.18
2018-07-11T11:13:36.371Z,38.18
2018-07-11T11:16:04.363Z,36.92
2018-07-11T11:18:31.495Z,36.97
2018-07-11T11:20:58.654Z,40.00
2018-07-11T11:23:25.805Z,40.27
2018-07-11T11:25:53.031Z,42.09
2018-07-11T11:28:20.236Z,41.42
2018-07-11T11:30:48.309Z,41.86
2018-07-11T11:33:15.541Z,46.98
2018-07-11T11:35:42.942Z,45.16
2018-07-11T11:38:10.294Z,40.97
2018-07-11T11:40:38.165Z,36.56
2018-07-11T11:43:05.481Z,37.27
2018-07-11T11:45:32.617Z,38.87
2018-07-11T11:48:00.935Z,39.18
2018-07-11T11:50:28.777Z,41.67
2018-07-11T11:52:55.957Z,39.54
2018-07-11T11:55:23.097Z,39.60
2018-07-11T11:57:51.063Z,39.77
2018-07-11T12:00:18.442Z,40.44
2018-07-11T12:02:45.815Z,38.78
2018-07-11T12:05:14.665Z,40.03
2018-07-11T12:07:41.834Z,40.78
2018-07-11T12:10:08.966Z,45.36
2018-07-11T12:12:37.185Z,38.88
2018-07-11T12:15:05.052Z,40.62
2018-07-11T12:17:32.171Z,43.73
2018-07-11T12:19:59.324Z,41.19
2018-07-11T12:22:26.855Z,39.26
2018-07-11T12:24:54.953Z,42.45
2018-07-11T12:27:22.237Z,37.03
2018-07-11T12:29:50.700Z,35.49
2018-07-11T12:32:17.888Z,39.50
2018-07-11T12:34:45.100Z,34.79
2018-07-11T12:37:12.409Z,35.28
2018-07-11T12:39:39.770Z,37.21
2018-07-11T12:42:07.067Z,35.21
2018-07-11T12:44:34.307Z,34.47
2018-07-11T12:47:01.475Z,35.76
2018-07-11T12:49:29.689Z,37.95
2018-07-11T12:51:56.938Z,40.80
2018-07-11T12:54:24.192Z,37.26
2018-07-11T12:56:54.615Z,39.08
2018-07-11T12:59:23.985Z,38.00
2018-07-11T13:01:52.889Z,34.63
2018-07-11T13:04:20.076Z,37.39
2018-07-11T13:06:47.483Z,38.02
2018-07-11T13:09:15.036Z,39.53
2018-07-11T13:11:42.307Z,34.17
2018-07-11T13:14:09.459Z,34.09
2018-07-11T13:16:36.691Z,35.42
2018-07-11T13:19:04.951Z,34.97
2018-07-11T13:21:32.088Z,36.59
2018-07-11T13:23:59.324Z,40.08
2018-07-11T13:26:26.449Z,36.52
2018-07-11T13:28:53.764Z,36.42
2018-07-11T13:31:21.092Z,44.18
2018-07-11T13:33:48.450Z,57.90
2018-07-11T13:36:16.021Z,59.50
2018-07-11T13:38:43.929Z,65.87
2018-07-11T13:41:11.152Z,68.74
2018-07-11T13:43:38.300Z,72.58
2018-07-11T13:46:05.526Z,78.49
2018-07-11T13:48:32.682Z,81.16
2018-07-11T13:50:59.896Z,84.93
2018-07-11T13:53:27.055Z,82.07
2018-07-11T13:55:54.216Z,82.21
2018-07-11T13:58:21.361Z,85.00
2018-07-11T14:00:48.650Z,84.13
2018-07-11T14:03:15.908Z,82.69
2018-07-11T14:05:43.572Z,66.67
2018-07-11T14:08:11.028Z,64.63
2018-07-11T14:10:38.524Z,63.07
2018-07-11T14:13:05.713Z,57.22
2018-07-11T14:15:32.942Z,54.16
2018-07-11T14:18:02.246Z,58.78
2018-07-11T14:20:29.470Z,55.04
2018-07-11T14:23:07.319Z,49.34
2018-07-11T14:25:36.023Z,51.87
2018-07-11T14:28:03.296Z,54.65
2018-07-11T14:30:31.553Z,49.90
2018-07-11T14:33:03.924Z,52.08
2018-07-11T14:35:32.320Z,49.29
2018-07-11T14:38:00.453Z,45.12
2018-07-11T14:40:27.812Z,43.54
2018-07-11T14:42:56.596Z,38.01
2018-07-11T14:45:24.151Z,43.40
2018-07-11T14:47:55.650Z,38.17
2018-07-11T14:50:22.865Z,39.13
2018-07-11T14:52:51.062Z,35.89
2018-07-11T14:55:18.539Z,37.51
2018-07-11T14:57:46.215Z,35.29
2018-07-11T15:00:13.739Z,36.73
2018-07-11T15:02:41.469Z,33.99
2018-07-11T15:05:08.935Z,34.63
2018-07-11T15:07:36.238Z,27.62
2018-07-11T15:10:03.408Z,28.40
2018-07-11T15:12:31.136Z,28.60
2018-07-11T15:14:58.341Z,23.11
2018-07-11T15:17:26.139Z,30.05
2018-07-11T15:19:54.098Z,34.87
2018-07-11T15:22:21.283Z,46.69
2018-07-11T15:24:48.471Z,54.70
2018-07-11T15:27:15.859Z,60.70
2018-07-11T15:29:43.249Z,64.21
2018-07-11T15:32:11.446Z,67.38
2018-07-11T15:34:41.094Z,68.21
2018-07-11T15:37:08.399Z,69.84
2018-07-11T15:39:36.947Z,75.87
2018-07-11T15:42:04.761Z,72.82
2018-07-11T15:44:32.754Z,75.45
2018-07-11T15:47:00.155Z,77.45
2018-07-11T15:49:29.577Z,80.59
2018-07-11T15:51:56.841Z,80.09
2018-07-11T15:54:24.236Z,79.68
2018-07-11T15:56:51.492Z,76.16
2018-07-11T15:59:19.082Z,77.37
2018-07-11T16:01:55.976Z,78.38
2018-07-11T16:04:34.220Z,77.69
2018-07-11T16:07:04.659Z,77.25
2018-07-11T16:09:41.738Z,75.45
2018-07-11T16:12:09.258Z,72.49
2018-07-11T16:14:36.373Z,76.26
2018-07-11T16:17:03.516Z,72.20
2018-07-11T16:19:31.711Z,68.84
2018-07-11T16:21:58.863Z,70.55
2018-07-11T16:24:26.018Z,64.22
2018-07-11T16:26:53.388Z,63.95
2018-07-11T16:29:20.648Z,62.99
2018-07-11T16:31:47.833Z,61.63
2018-07-11T16:34:16.403Z,57.82
2018-07-11T16:36:43.697Z,55.89
2018-07-11T16:39:11.096Z,63.38
2018-07-11T16:41:38.353Z,59.25
2018-07-11T16:44:05.516Z,62.20
2018-07-11T16:46:32.673Z,58.35
2018-07-11T16:48:59.995Z,62.18
2018-07-11T16:51:27.126Z,61.90
2018-07-11T16:53:54.961Z,59.28
2018-07-11T16:56:22.113Z,59.66
2018-07-11T16:58:51.481Z,56.70
2018-07-11T17:01:18.799Z,60.05
2018-07-11T17:03:46.340Z,62.17
2018-07-11T17:06:13.779Z,57.31
2018-07-11T17:08:46.912Z,59.06
2018-07-11T17:11:18.507Z,58.76
2018-07-11T17:13:50.177Z,56.45
2018-07-11T17:16:17.518Z,58.06
2018-07-11T17:18:47.529Z,55.46
2018-07-11T17:21:21.876Z,55.25
2018-07-11T17:23:52.334Z,54.08
2018-07-11T17:26:22.021Z,53.47
2018-07-11T17:28:49.207Z,53.90
2018-07-11T17:31:16.593Z,55.86
2018-07-11T17:33:44.037Z,58.74
2018-07-11T17:36:11.369Z,63.53
2018-07-11T17:38:38.607Z,69.40
2018-07-11T17:41:05.863Z,73.53
2018-07-11T17:43:35.864Z,78.61
2018-07-11T17:46:03.134Z,81.32
2018-07-11T17:48:40.927Z,83.87
2018-07-11T17:51:17.694Z,86.00
2018-07-11T17:53:49.553Z,87.23
2018-07-11T17:56:21.132Z,89.28
2018-07-11T17:58:53.173Z,89.60
2018-07-11T18:01:27.464Z,90.99
2018-07-11T18:04:05.420Z,91.46
2018-07-11T18:07:13.372Z,92.71
2018-07-11T18:09:53.670Z,93.81
2018-07-11T18:12:24.148Z,93.57
2018-07-11T18:15:30.944Z,93.96
2018-07-11T18:18:09.687Z,94.29
2018-07-11T18:21:15.292Z,94.85
2018-07-11T18:25:56.121Z,95.62
2018-07-11T18:29:10.926Z,94.31
2018-07-11T18:31:56.235Z,93.68
2018-07-11T18:35:35.705Z,93.58
2018-07-11T18:38:15.824Z,88.19
2018-07-11T18:40:55.328Z,81.09
2018-07-11T18:44:28.634Z,80.47
2018-07-11T18:47:36.855Z,86.78
2018-07-11T18:51:17.099Z,81.13
2018-07-11T18:53:51.851Z,86.33
2018-07-11T18:57:34.246Z,86.63
2018-07-11T19:00:21.297Z,89.32
2018-07-11T19:05:08.413Z,89.65
2018-07-11T19:07:51.680Z,96.32
2018-07-11T19:11:02.924Z,96.88
2018-07-11T19:13:33.819Z,96.50
2018-07-11T19:16:08.764Z,96.39
2018-07-11T19:18:47.330Z,97.17
2018-07-11T19:21:18.493Z,96.81
2018-07-11T19:24:06.290Z,92.85
2018-07-11T19:26:41.599Z,94.86
2018-07-11T19:29:18.543Z,94.24
2018-07-11T19:33:59.635Z,95.76
2018-07-11T19:36:41.797Z,96.92
2018-07-11T19:39:22.560Z,98.38
2018-07-11T19:41:59.379Z,98.17
2018-07-11T19:46:55.887Z,99.89
2018-07-11T19:49:31.750Z,99.08
2018-07-11T19:52:13.471Z,99.72
2018-07-11T19:54:48.460Z,100.00
2018-07-11T19:57:15.862Z,100.00
2018-07-11T19:59:43.227Z,100.00
2018-07-11T20:02:11.335Z,100.00
2018-07-11T20:04:38.693Z,100.00
2018-07-11T20:07:05.844Z,100.00
2018-07-11T20:09:33.001Z,100.00
2018-07-11T20:12:00.212Z,100.00
2018-07-11T20:14:27.788Z,100.00
2018-07-11T20:16:54.871Z,100.00
2018-07-11T20:19:22.031Z,100.00
2018-07-11T20:21:49.199Z,100.00
2018-07-11T20:24:17.133Z,100.00
2018-07-11T20:26:44.501Z,100.00
2018-07-11T20:29:12.335Z,100.00
2018-07-11T20:31:39.867Z,100.00
2018-07-11T20:34:07.016Z,100.00
2018-07-11T20:36:34.219Z,100.00
2018-07-11T20:39:01.364Z,100.00
2018-07-11T20:41:28.642Z,100.00
2018-07-11T20:43:55.732Z,100.00
2018-07-11T20:46:22.888Z,100.00
2018-07-11T20:48:50.006Z,100.00
2018-07-11T20:51:17.624Z,100.00
2018-07-11T20:53:44.839Z,100.00
2018-07-11T20:56:12.152Z,100.00
2018-07-11T20:58:50.811Z,100.00
2018-07-11T21:01:29.505Z,100.00
2018-07-11T21:06:15.321Z,100.00
2018-07-11T21:11:01.634Z,100.00
2018-07-11T21:13:40.986Z,100.00
2018-07-11T21:16:24.839Z,100.00
2018-07-11T21:18:58.312Z,100.00
2018-07-11T21:21:25.487Z,100.00
2018-07-11T21:23:52.591Z,100.00
2018-07-11T21:26:20.110Z,100.00
2018-07-11T21:28:47.314Z,100.00
2018-07-11T21:31:14.514Z,100.00
2018-07-11T21:33:41.680Z,100.00
2018-07-11T21:36:08.946Z,100.00
2018-07-11T21:38:36.050Z,100.00
2018-07-11T21:41:03.198Z,100.00
2018-07-11T21:43:30.496Z,100.00
2018-07-11T21:45:57.689Z,100.00
2018-07-11T21:48:24.885Z,100.00
2018-07-11T21:50:52.027Z,100.00
2018-07-11T21:53:19.178Z,100.00
2018-07-11T21:55:46.300Z,100.00
2018-07-11T21:58:13.528Z,100.00
2018-07-11T22:00:41.086Z,100.00
2018-07-11T22:03:09.677Z,100.00
2018-07-11T22:05:36.971Z,100.00
2018-07-11T22:08:06.789Z,100.00
2018-07-11T22:10:34.535Z,100.00
2018-07-11T22:13:02.095Z,100.00
2018-07-11T22:15:29.198Z,100.00
2018-07-11T22:18:07.903Z,100.00
2018-07-11T22:20:34.070Z,100.00
2018-07-11T22:23:00.747Z,100.00
2018-07-11T22:25:27.007Z,100.00
2018-07-11T22:27:53.187Z,100.00
2018-07-11T22:30:19.338Z,100.00
2018-07-11T22:32:45.528Z,100.00
2018-07-11T22:35:11.702Z,100.00
2018-07-11T22:37:38.651Z,100.00
2018-07-11T22:40:04.845Z,100.00
2018-07-11T22:42:31.062Z,100.00
2018-07-11T22:44:57.237Z,100.00
2018-07-11T22:47:23.584Z,100.00
2018-07-11T22:49:55.486Z,100.00
2018-07-11T22:52:21.650Z,100.00
2018-07-11T22:54:48.884Z,100.00
2018-07-11T22:57:15.099Z,100.00
2018-07-11T22:59:41.303Z,100.00
2018-07-11T23:02:07.604Z,100.00
2018-07-11T23:04:33.864Z,100.00
2018-07-11T23:07:00.285Z,100.00
2018-07-11T23:09:26.479Z,100.00
2018-07-11T23:11:52.630Z,100.00
2018-07-11T23:14:18.778Z,100.00
2018-07-11T23:16:46.241Z,100.00
2018-07-11T23:19:12.400Z,100.00
2018-07-11T23:21:38.724Z,100.00
2018-07-11T23:24:04.925Z,100.00
2018-07-11T23:26:31.325Z,100.00
2018-07-11T23:28:57.563Z,100.00
2018-07-11T23:31:23.760Z,100.00
2018-07-11T23:33:49.903Z,100.00
2018-07-11T23:36:16.093Z,100.00
2018-07-11T23:38:42.554Z,100.00
2018-07-11T23:41:08.775Z,100.00
2018-07-11T23:43:34.936Z,100.00
2018-07-11T23:46:02.189Z,100.00
2018-07-11T23:48:28.527Z,100.00
2018-07-11T23:50:54.711Z,100.00
2018-07-11T23:53:20.930Z,100.00
2018-07-11T23:55:47.171Z,100.00
2018-07-11T23:58:13.308Z,100.00
